sensor_id;sensor_type;location;lat;lon;timestamp;temperature;humidity
61351;DHT22;47119;49.130;9.218;2023-03-01T00:00:22;7.48;51.07
61351;DHT22;47119;49.130;9.218;2023-03-01T00:02:50;7.54;50.81
61351;DHT22;47119;49.130;9.218;2023-03-01T00:05:21;7.51;51.07
61351;DHT22;47119;49.130;9.218;2023-03-01T00:07:52;7.58;50.76
61351;DHT22;47119;49.130;9.218;2023-03-01T00:10:20;7.59;50.78
61351;DHT22;47119;49.130;9.218;2023-03-01T00:12:47;7.55;51.05
61351;DHT22;47119;49.130;9.218;2023-03-01T00:15:18;7.50;50.79
61351;DHT22;47119;49.130;9.218;2023-03-01T00:17:46;7.45;50.67
61351;DHT22;47119;49.130;9.218;2023-03-01T00:20:13;7.45;50.63
61351;DHT22;47119;49.130;9.218;2023-03-01T00:22:42;7.48;50.38
61351;DHT22;47119;49.130;9.218;2023-03-01T00:25:11;7.44;50.47
61351;DHT22;47119;49.130;9.218;2023-03-01T00:27:41;7.37;50.63
61351;DHT22;47119;49.130;9.218;2023-03-01T00:30:10;7.40;50.57
61351;DHT22;47119;49.130;9.218;2023-03-01T00:32:41;7.37;50.20
61351;DHT22;47119;49.130;9.218;2023-03-01T00:35:11;7.30;50.05
61351;DHT22;47119;49.130;9.218;2023-03-01T00:37:38;7.37;50.32
61351;DHT22;47119;49.130;9.218;2023-03-01T00:40:10;7.35;50.63
61351;DHT22;47119;49.130;9.218;2023-03-01T00:42:47;7.34;50.49
61351;DHT22;47119;49.130;9.218;2023-03-01T00:45:17;7.34;50.49
61351;DHT22;47119;49.130;9.218;2023-03-01T00:47:45;7.43;50.70
61351;DHT22;47119;49.130;9.218;2023-03-01T00:50:13;7.34;50.26
61351;DHT22;47119;49.130;9.218;2023-03-01T00:52:46;7.31;50.55
61351;DHT22;47119;49.130;9.218;2023-03-01T00:55:15;7.31;50.68
61351;DHT22;47119;49.130;9.218;2023-03-01T00:57:59;7.34;50.88
61351;DHT22;47119;49.130;9.218;2023-03-01T01:03:53;7.38;50.67
61351;DHT22;47119;49.130;9.218;2023-03-01T01:06:28;7.35;50.90
61351;DHT22;47119;49.130;9.218;2023-03-01T01:09:10;7.43;50.71
61351;DHT22;47119;49.130;9.218;2023-03-01T01:12:06;7.41;50.62
61351;DHT22;47119;49.130;9.218;2023-03-01T01:15:41;7.35;50.54
61351;DHT22;47119;49.130;9.218;2023-03-01T01:18:27;7.35;50.56
61351;DHT22;47119;49.130;9.218;2023-03-01T01:21:05;7.27;50.74
61351;DHT22;47119;49.130;9.218;2023-03-01T01:23:51;7.27;50.79
61351;DHT22;47119;49.130;9.218;2023-03-01T01:26:27;7.30;50.88
61351;DHT22;47119;49.130;9.218;2023-03-01T01:28:59;7.28;50.54
61351;DHT22;47119;49.130;9.218;2023-03-01T01:31:36;7.26;50.82
61351;DHT22;47119;49.130;9.218;2023-03-01T01:34:16;7.32;50.79
61351;DHT22;47119;49.130;9.218;2023-03-01T01:36:52;7.27;50.97
61351;DHT22;47119;49.130;9.218;2023-03-01T01:39:34;7.28;50.99
61351;DHT22;47119;49.130;9.218;2023-03-01T01:42:06;7.27;50.93
61351;DHT22;47119;49.130;9.218;2023-03-01T01:45:15;7.21;50.72
61351;DHT22;47119;49.130;9.218;2023-03-01T01:48:19;7.24;50.89
61351;DHT22;47119;49.130;9.218;2023-03-01T01:51:21;7.30;50.72
61351;DHT22;47119;49.130;9.218;2023-03-01T01:54:38;7.32;51.21
61351;DHT22;47119;49.130;9.218;2023-03-01T01:57:43;7.35;51.14
61351;DHT22;47119;49.130;9.218;2023-03-01T02:01:07;7.37;51.22
61351;DHT22;47119;49.130;9.218;2023-03-01T02:04:16;7.32;51.45
61351;DHT22;47119;49.130;9.218;2023-03-01T02:07:07;7.31;51.25
61351;DHT22;47119;49.130;9.218;2023-03-01T02:09:51;7.37;51.57
61351;DHT22;47119;49.130;9.218;2023-03-01T02:12:23;7.32;51.38
61351;DHT22;47119;49.130;9.218;2023-03-01T02:15:40;7.28;51.31
61351;DHT22;47119;49.130;9.218;2023-03-01T02:17:51;7.30;51.64
61351;DHT22;47119;49.130;9.218;2023-03-01T02:20:33;7.24;51.66
61351;DHT22;47119;49.130;9.218;2023-03-01T02:23:17;7.21;51.58
61351;DHT22;47119;49.130;9.218;2023-03-01T02:26:01;7.27;51.39
61351;DHT22;47119;49.130;9.218;2023-03-01T02:28:42;7.34;51.31
61351;DHT22;47119;49.130;9.218;2023-03-01T02:31:18;7.31;51.71
61351;DHT22;47119;49.130;9.218;2023-03-01T02:34:09;7.37;51.53
61351;DHT22;47119;49.130;9.218;2023-03-01T02:36:45;7.34;51.31
61351;DHT22;47119;49.130;9.218;2023-03-01T02:39:21;7.30;51.37
61351;DHT22;47119;49.130;9.218;2023-03-01T02:41:54;7.24;51.23
61351;DHT22;47119;49.130;9.218;2023-03-01T02:44:25;7.30;51.54
61351;DHT22;47119;49.130;9.218;2023-03-01T02:46:57;7.21;51.62
61351;DHT22;47119;49.130;9.218;2023-03-01T02:50:34;7.26;51.25
61351;DHT22;47119;49.130;9.218;2023-03-01T02:53:23;7.18;51.73
61351;DHT22;47119;49.130;9.218;2023-03-01T02:55:57;7.21;51.60
61351;DHT22;47119;49.130;9.218;2023-03-01T02:58:36;7.20;51.73
61351;DHT22;47119;49.130;9.218;2023-03-01T03:01:37;7.18;51.68
61351;DHT22;47119;49.130;9.218;2023-03-01T03:04:26;7.20;51.60
61351;DHT22;47119;49.130;9.218;2023-03-01T03:07:06;7.21;51.63
61351;DHT22;47119;49.130;9.218;2023-03-01T03:09:52;7.20;51.71
61351;DHT22;47119;49.130;9.218;2023-03-01T03:13:02;7.10;51.81
61351;DHT22;47119;49.130;9.218;2023-03-01T03:16:07;7.18;51.96
61351;DHT22;47119;49.130;9.218;2023-03-01T03:19:28;7.20;51.88
61351;DHT22;47119;49.130;9.218;2023-03-01T03:22:33;7.21;51.77
61351;DHT22;47119;49.130;9.218;2023-03-01T03:25:35;7.17;51.62
61351;DHT22;47119;49.130;9.218;2023-03-01T03:28:09;7.13;51.89
61351;DHT22;47119;49.130;9.218;2023-03-01T03:30:45;7.07;52.16
61351;DHT22;47119;49.130;9.218;2023-03-01T03:33:22;7.17;51.97
61351;DHT22;47119;49.130;9.218;2023-03-01T03:36:02;7.17;51.98
61351;DHT22;47119;49.130;9.218;2023-03-01T03:38:39;7.06;52.08
61351;DHT22;47119;49.130;9.218;2023-03-01T03:41:15;7.00;52.10
61351;DHT22;47119;49.130;9.218;2023-03-01T03:43:56;7.03;52.27
61351;DHT22;47119;49.130;9.218;2023-03-01T03:46:38;7.27;52.57
61351;DHT22;47119;49.130;9.218;2023-03-01T03:49:11;7.43;52.14
61351;DHT22;47119;49.130;9.218;2023-03-01T03:52:03;7.51;51.67
61351;DHT22;47119;49.130;9.218;2023-03-01T03:54:47;7.57;51.22
61351;DHT22;47119;49.130;9.218;2023-03-01T03:57:15;7.66;51.67
61351;DHT22;47119;49.130;9.218;2023-03-01T03:59:42;7.72;51.24
61351;DHT22;47119;49.130;9.218;2023-03-01T04:02:10;7.76;51.00
61351;DHT22;47119;49.130;9.218;2023-03-01T04:04:37;7.71;50.85
61351;DHT22;47119;49.130;9.218;2023-03-01T04:07:05;7.71;50.93
61351;DHT22;47119;49.130;9.218;2023-03-01T04:09:39;7.78;51.13
61351;DHT22;47119;49.130;9.218;2023-03-01T04:12:16;7.66;51.34
61351;DHT22;47119;49.130;9.218;2023-03-01T04:14:53;7.71;51.20
61351;DHT22;47119;49.130;9.218;2023-03-01T04:21:27;7.43;51.74
61351;DHT22;47119;49.130;9.218;2023-03-01T04:23:56;7.48;51.95
61351;DHT22;47119;49.130;9.218;2023-03-01T04:26:23;7.50;51.81
61351;DHT22;47119;49.130;9.218;2023-03-01T04:28:59;7.50;51.82
61351;DHT22;47119;49.130;9.218;2023-03-01T04:31:27;7.31;51.76
61351;DHT22;47119;49.130;9.218;2023-03-01T04:33:56;7.28;51.45
61351;DHT22;47119;49.130;9.218;2023-03-01T04:36:27;7.35;51.62
61351;DHT22;47119;49.130;9.218;2023-03-01T04:39:08;7.32;51.56
61351;DHT22;47119;49.130;9.218;2023-03-01T04:41:43;7.28;51.81
61351;DHT22;47119;49.130;9.218;2023-03-01T04:44:31;7.18;51.17
61351;DHT22;47119;49.130;9.218;2023-03-01T04:47:43;7.10;51.03
61351;DHT22;47119;49.130;9.218;2023-03-01T04:50:47;7.16;51.02
61351;DHT22;47119;49.130;9.218;2023-03-01T04:53:30;7.18;51.39
61351;DHT22;47119;49.130;9.218;2023-03-01T04:56:07;7.27;51.33
61351;DHT22;47119;49.130;9.218;2023-03-01T04:58:54;7.21;51.13
61351;DHT22;47119;49.130;9.218;2023-03-01T05:01:56;7.16;51.23
61351;DHT22;47119;49.130;9.218;2023-03-01T05:05:35;7.10;51.25
61351;DHT22;47119;49.130;9.218;2023-03-01T05:09:06;7.04;51.48
61351;DHT22;47119;49.130;9.218;2023-03-01T05:12:22;7.14;51.64
61351;DHT22;47119;49.130;9.218;2023-03-01T05:18:49;7.17;52.12
61351;DHT22;47119;49.130;9.218;2023-03-01T05:21:27;7.20;52.11
61351;DHT22;47119;49.130;9.218;2023-03-01T05:24:09;7.28;52.23
61351;DHT22;47119;49.130;9.218;2023-03-01T05:26:49;7.27;51.84
61351;DHT22;47119;49.130;9.218;2023-03-01T05:29:36;7.28;51.59
61351;DHT22;47119;49.130;9.218;2023-03-01T05:32:07;7.21;51.78
61351;DHT22;47119;49.130;9.218;2023-03-01T05:34:47;7.26;52.01
61351;DHT22;47119;49.130;9.218;2023-03-01T05:37:33;7.27;51.69
61351;DHT22;47119;49.130;9.218;2023-03-01T05:40:20;7.16;51.32
61351;DHT22;47119;49.130;9.218;2023-03-01T05:46:03;7.00;51.84
61351;DHT22;47119;49.130;9.218;2023-03-01T05:48:30;7.01;51.53
61351;DHT22;47119;49.130;9.218;2023-03-01T05:51:00;7.00;51.68
61351;DHT22;47119;49.130;9.218;2023-03-01T05:53:29;6.95;51.36
61351;DHT22;47119;49.130;9.218;2023-03-01T05:55:58;6.90;51.44
61351;DHT22;47119;49.130;9.218;2023-03-01T05:58:27;6.92;51.24
61351;DHT22;47119;49.130;9.218;2023-03-01T06:00:54;6.83;51.48
61351;DHT22;47119;49.130;9.218;2023-03-01T06:03:22;6.86;51.45
61351;DHT22;47119;49.130;9.218;2023-03-01T06:05:55;6.83;51.34
61351;DHT22;47119;49.130;9.218;2023-03-01T06:08:25;6.85;51.34
61351;DHT22;47119;49.130;9.218;2023-03-01T06:10:52;6.83;51.45
61351;DHT22;47119;49.130;9.218;2023-03-01T06:13:22;6.83;51.56
61351;DHT22;47119;49.130;9.218;2023-03-01T06:15:49;6.80;51.95
61351;DHT22;47119;49.130;9.218;2023-03-01T06:18:23;6.82;52.20
61351;DHT22;47119;49.130;9.218;2023-03-01T06:20:53;6.92;51.98
61351;DHT22;47119;49.130;9.218;2023-03-01T06:23:21;6.92;52.29
61351;DHT22;47119;49.130;9.218;2023-03-01T06:25:50;6.85;52.38
61351;DHT22;47119;49.130;9.218;2023-03-01T06:28:17;6.82;51.93
61351;DHT22;47119;49.130;9.218;2023-03-01T06:30:44;6.89;51.97
61351;DHT22;47119;49.130;9.218;2023-03-01T06:33:13;6.92;51.85
61351;DHT22;47119;49.130;9.218;2023-03-01T06:35:44;6.90;52.22
61351;DHT22;47119;49.130;9.218;2023-03-01T06:38:11;6.89;52.17
61351;DHT22;47119;49.130;9.218;2023-03-01T06:40:42;6.90;52.19
61351;DHT22;47119;49.130;9.218;2023-03-01T06:43:09;6.95;52.13
61351;DHT22;47119;49.130;9.218;2023-03-01T06:45:36;6.99;51.67
61351;DHT22;47119;49.130;9.218;2023-03-01T06:48:04;6.86;51.86
61351;DHT22;47119;49.130;9.218;2023-03-01T06:50:32;6.76;51.36
61351;DHT22;47119;49.130;9.218;2023-03-01T06:53:01;6.86;51.39
61351;DHT22;47119;49.130;9.218;2023-03-01T06:55:31;6.76;51.46
61351;DHT22;47119;49.130;9.218;2023-03-01T06:58:02;6.86;51.29
61351;DHT22;47119;49.130;9.218;2023-03-01T07:00:32;6.93;51.37
61351;DHT22;47119;49.130;9.218;2023-03-01T07:03:01;6.97;51.31
61351;DHT22;47119;49.130;9.218;2023-03-01T07:05:29;6.95;51.55
61351;DHT22;47119;49.130;9.218;2023-03-01T07:07:58;6.86;51.31
61351;DHT22;47119;49.130;9.218;2023-03-01T07:10:28;6.87;51.39
61351;DHT22;47119;49.130;9.218;2023-03-01T07:12:57;6.86;51.42
61351;DHT22;47119;49.130;9.218;2023-03-01T07:15:27;6.82;51.24
61351;DHT22;47119;49.130;9.218;2023-03-01T07:17:57;6.89;51.46
61351;DHT22;47119;49.130;9.218;2023-03-01T07:20:26;6.79;51.73
61351;DHT22;47119;49.130;9.218;2023-03-01T07:22:53;6.71;51.54
61351;DHT22;47119;49.130;9.218;2023-03-01T07:25:24;6.76;51.30
61351;DHT22;47119;49.130;9.218;2023-03-01T07:27:53;6.69;50.97
61351;DHT22;47119;49.130;9.218;2023-03-01T07:30:21;6.73;51.17
61351;DHT22;47119;49.130;9.218;2023-03-01T07:32:53;6.76;51.03
61351;DHT22;47119;49.130;9.218;2023-03-01T07:35:21;6.90;51.54
61351;DHT22;47119;49.130;9.218;2023-03-01T07:37:53;6.92;51.20
61351;DHT22;47119;49.130;9.218;2023-03-01T07:40:22;6.90;51.02
61351;DHT22;47119;49.130;9.218;2023-03-01T07:42:56;6.93;51.05
61351;DHT22;47119;49.130;9.218;2023-03-01T07:45:26;6.95;51.34
61351;DHT22;47119;49.130;9.218;2023-03-01T07:47:55;6.99;50.95
61351;DHT22;47119;49.130;9.218;2023-03-01T07:50:23;6.92;50.90
61351;DHT22;47119;49.130;9.218;2023-03-01T07:52:54;6.99;51.24
61351;DHT22;47119;49.130;9.218;2023-03-01T07:55:21;7.01;50.83
61351;DHT22;47119;49.130;9.218;2023-03-01T07:57:48;6.99;50.86
61351;DHT22;47119;49.130;9.218;2023-03-01T08:00:19;6.97;51.00
61351;DHT22;47119;49.130;9.218;2023-03-01T08:02:49;7.04;51.07
61351;DHT22;47119;49.130;9.218;2023-03-01T08:05:16;6.89;50.92
61351;DHT22;47119;49.130;9.218;2023-03-01T08:07:43;7.06;50.94
61351;DHT22;47119;49.130;9.218;2023-03-01T08:10:12;6.92;50.92
61351;DHT22;47119;49.130;9.218;2023-03-01T08:12:39;6.92;50.92
61351;DHT22;47119;49.130;9.218;2023-03-01T08:15:08;6.89;50.90
61351;DHT22;47119;49.130;9.218;2023-03-01T08:17:37;6.72;51.08
61351;DHT22;47119;49.130;9.218;2023-03-01T08:20:06;6.77;51.39
61351;DHT22;47119;49.130;9.218;2023-03-01T08:22:39;6.85;51.08
61351;DHT22;47119;49.130;9.218;2023-03-01T08:25:07;6.89;51.27
61351;DHT22;47119;49.130;9.218;2023-03-01T08:27:34;6.95;51.09
61351;DHT22;47119;49.130;9.218;2023-03-01T08:30:05;7.10;51.00
61351;DHT22;47119;49.130;9.218;2023-03-01T08:32:38;7.17;51.53
61351;DHT22;47119;49.130;9.218;2023-03-01T08:35:09;7.11;50.98
61351;DHT22;47119;49.130;9.218;2023-03-01T08:37:36;7.23;51.10
61351;DHT22;47119;49.130;9.218;2023-03-01T08:40:03;7.30;51.08
61351;DHT22;47119;49.130;9.218;2023-03-01T08:42:32;7.35;51.15
61351;DHT22;47119;49.130;9.218;2023-03-01T08:45:05;7.32;51.01
61351;DHT22;47119;49.130;9.218;2023-03-01T08:47:38;7.21;51.18
61351;DHT22;47119;49.130;9.218;2023-03-01T08:50:09;7.32;50.83
61351;DHT22;47119;49.130;9.218;2023-03-01T08:52:36;7.30;50.35
61351;DHT22;47119;49.130;9.218;2023-03-01T08:55:06;7.27;50.66
61351;DHT22;47119;49.130;9.218;2023-03-01T08:57:34;7.43;50.88
61351;DHT22;47119;49.130;9.218;2023-03-01T09:00:01;7.51;50.94
61351;DHT22;47119;49.130;9.218;2023-03-01T09:02:33;7.43;50.50
61351;DHT22;47119;49.130;9.218;2023-03-01T09:05:01;7.40;50.38
61351;DHT22;47119;49.130;9.218;2023-03-01T09:07:29;7.48;50.79
61351;DHT22;47119;49.130;9.218;2023-03-01T09:09:58;7.45;50.57
61351;DHT22;47119;49.130;9.218;2023-03-01T09:12:29;7.54;50.75
61351;DHT22;47119;49.130;9.218;2023-03-01T09:14:59;7.58;50.79
61351;DHT22;47119;49.130;9.218;2023-03-01T09:17:28;7.59;50.74
61351;DHT22;47119;49.130;9.218;2023-03-01T09:19:57;7.52;50.49
61351;DHT22;47119;49.130;9.218;2023-03-01T09:22:28;7.35;50.29
61351;DHT22;47119;49.130;9.218;2023-03-01T09:24:57;7.41;50.78
61351;DHT22;47119;49.130;9.218;2023-03-01T09:27:24;7.58;50.84
61351;DHT22;47119;49.130;9.218;2023-03-01T09:29:53;7.58;50.48
61351;DHT22;47119;49.130;9.218;2023-03-01T09:32:24;7.61;50.51
61351;DHT22;47119;49.130;9.218;2023-03-01T09:34:51;7.61;50.60
61351;DHT22;47119;49.130;9.218;2023-03-01T09:37:37;7.55;50.55
61351;DHT22;47119;49.130;9.218;2023-03-01T09:40:08;7.50;50.24
61351;DHT22;47119;49.130;9.218;2023-03-01T09:42:47;7.57;50.41
61351;DHT22;47119;49.130;9.218;2023-03-01T09:45:29;7.58;50.45
61351;DHT22;47119;49.130;9.218;2023-03-01T09:48:04;7.50;50.70
61351;DHT22;47119;49.130;9.218;2023-03-01T09:50:43;7.62;50.96
61351;DHT22;47119;49.130;9.218;2023-03-01T09:53:16;7.69;50.67
61351;DHT22;47119;49.130;9.218;2023-03-01T09:55:54;7.72;50.45
61351;DHT22;47119;49.130;9.218;2023-03-01T09:58:36;7.75;50.67
61351;DHT22;47119;49.130;9.218;2023-03-01T10:01:27;7.65;50.88
61351;DHT22;47119;49.130;9.218;2023-03-01T10:04:12;7.79;50.88
61351;DHT22;47119;49.130;9.218;2023-03-01T10:07:20;7.83;50.97
61351;DHT22;47119;49.130;9.218;2023-03-01T10:09:57;7.83;50.72
61351;DHT22;47119;49.130;9.218;2023-03-01T10:12:30;7.82;50.80
61351;DHT22;47119;49.130;9.218;2023-03-01T10:15:06;7.82;50.25
61351;DHT22;47119;49.130;9.218;2023-03-01T10:17:41;7.75;50.37
61351;DHT22;47119;49.130;9.218;2023-03-01T10:20:19;7.69;50.20
61351;DHT22;47119;49.130;9.218;2023-03-01T10:22:51;7.62;50.13
61351;DHT22;47119;49.130;9.218;2023-03-01T10:25:40;7.58;50.30
61351;DHT22;47119;49.130;9.218;2023-03-01T10:28:25;7.69;50.23
61351;DHT22;47119;49.130;9.218;2023-03-01T10:30:56;7.79;50.60
61351;DHT22;47119;49.130;9.218;2023-03-01T10:33:29;7.79;50.45
61351;DHT22;47119;49.130;9.218;2023-03-01T10:35:58;7.90;50.47
61351;DHT22;47119;49.130;9.218;2023-03-01T10:38:56;8.00;50.33
61351;DHT22;47119;49.130;9.218;2023-03-01T10:41:58;8.00;50.47
61351;DHT22;47119;49.130;9.218;2023-03-01T10:44:42;7.95;50.41
61351;DHT22;47119;49.130;9.218;2023-03-01T10:47:21;7.99;50.46
61351;DHT22;47119;49.130;9.218;2023-03-01T10:50:03;7.99;50.31
61351;DHT22;47119;49.130;9.218;2023-03-01T10:53:05;7.93;50.24
61351;DHT22;47119;49.130;9.218;2023-03-01T10:56:49;7.89;49.92
61351;DHT22;47119;49.130;9.218;2023-03-01T10:59:26;7.76;49.77
61351;DHT22;47119;49.130;9.218;2023-03-01T11:02:16;7.92;50.14
61351;DHT22;47119;49.130;9.218;2023-03-01T11:04:57;7.93;49.85
61351;DHT22;47119;49.130;9.218;2023-03-01T11:07:28;7.96;50.21
61351;DHT22;47119;49.130;9.218;2023-03-01T11:10:15;8.09;50.20
61351;DHT22;47119;49.130;9.218;2023-03-01T11:12:44;8.13;50.05
61351;DHT22;47119;49.130;9.218;2023-03-01T11:15:25;8.25;50.19
61351;DHT22;47119;49.130;9.218;2023-03-01T11:17:56;8.30;50.68
61351;DHT22;47119;49.130;9.218;2023-03-01T11:20:31;8.22;49.73
61351;DHT22;47119;49.130;9.218;2023-03-01T11:23:06;8.14;49.64
61351;DHT22;47119;49.130;9.218;2023-03-01T11:25:40;8.07;49.79
61351;DHT22;47119;49.130;9.218;2023-03-01T11:28:14;8.06;49.60
61351;DHT22;47119;49.130;9.218;2023-03-01T11:30:53;8.10;49.81
61351;DHT22;47119;49.130;9.218;2023-03-01T11:33:35;8.19;49.75
61351;DHT22;47119;49.130;9.218;2023-03-01T11:36:15;8.10;49.84
61351;DHT22;47119;49.130;9.218;2023-03-01T11:38:53;8.07;49.67
61351;DHT22;47119;49.130;9.218;2023-03-01T11:41:26;8.07;49.84
61351;DHT22;47119;49.130;9.218;2023-03-01T18:48:15;8.78;50.36
61351;DHT22;47119;49.130;9.218;2023-03-01T18:50:43;8.81;50.36
61351;DHT22;47119;49.130;9.218;2023-03-01T18:53:10;8.84;50.56
61351;DHT22;47119;49.130;9.218;2023-03-01T18:55:38;8.87;50.39
61351;DHT22;47119;49.130;9.218;2023-03-01T19:04:18;8.81;50.73
61351;DHT22;47119;49.130;9.218;2023-03-01T19:06:47;8.77;50.82
61351;DHT22;47119;49.130;9.218;2023-03-01T19:09:14;8.77;50.90
61351;DHT22;47119;49.130;9.218;2023-03-01T19:11:43;8.75;50.82
61351;DHT22;47119;49.130;9.218;2023-03-01T19:14:13;8.69;50.87
61351;DHT22;47119;49.130;9.218;2023-03-01T19:16:40;8.72;50.65
61351;DHT22;47119;49.130;9.218;2023-03-01T19:19:09;8.75;50.63
61351;DHT22;47119;49.130;9.218;2023-03-01T19:21:41;8.75;51.00
61351;DHT22;47119;49.130;9.218;2023-03-01T20:16:57;8.58;51.05
61351;DHT22;47119;49.130;9.218;2023-03-01T20:19:24;8.61;51.15
61351;DHT22;47119;49.130;9.218;2023-03-01T20:21:52;8.60;51.03
61351;DHT22;47119;49.130;9.218;2023-03-01T21:23:43;8.26;52.14
61351;DHT22;47119;49.130;9.218;2023-03-01T21:26:16;8.16;52.38
61351;DHT22;47119;49.130;9.218;2023-03-01T21:28:49;8.23;52.38
61351;DHT22;47119;49.130;9.218;2023-03-01T21:31:27;8.27;52.31
61351;DHT22;47119;49.130;9.218;2023-03-01T21:33:59;8.25;52.36
61351;DHT22;47119;49.130;9.218;2023-03-01T21:36:29;8.34;52.32
61351;DHT22;47119;49.130;9.218;2023-03-01T21:38:59;8.33;52.45
61351;DHT22;47119;49.130;9.218;2023-03-01T21:41:28;8.33;52.42
61351;DHT22;47119;49.130;9.218;2023-03-01T21:43:57;8.37;52.55
61351;DHT22;47119;49.130;9.218;2023-03-01T21:46:29;8.33;52.68
61351;DHT22;47119;49.130;9.218;2023-03-01T21:48:58;8.33;52.50
61351;DHT22;47119;49.130;9.218;2023-03-01T21:51:26;8.34;52.43
61351;DHT22;47119;49.130;9.218;2023-03-01T21:53:55;8.33;52.54
61351;DHT22;47119;49.130;9.218;2023-03-01T21:56:25;8.27;52.39
61351;DHT22;47119;49.130;9.218;2023-03-01T21:58:56;8.27;52.51
61351;DHT22;47119;49.130;9.218;2023-03-01T22:01:24;8.30;52.63
61351;DHT22;47119;49.130;9.218;2023-03-01T22:03:53;8.27;52.77
61351;DHT22;47119;49.130;9.218;2023-03-01T22:06:22;8.23;52.75
61351;DHT22;47119;49.130;9.218;2023-03-01T22:08:55;8.26;52.59
61351;DHT22;47119;49.130;9.218;2023-03-01T22:11:26;8.17;52.92
61351;DHT22;47119;49.130;9.218;2023-03-01T22:13:55;8.20;52.87
61351;DHT22;47119;49.130;9.218;2023-03-01T22:16:25;8.20;52.98
61351;DHT22;47119;49.130;9.218;2023-03-01T22:18:54;8.16;52.92
61351;DHT22;47119;49.130;9.218;2023-03-01T22:21:23;8.14;53.06
61351;DHT22;47119;49.130;9.218;2023-03-01T22:23:54;8.07;53.14
61351;DHT22;47119;49.130;9.218;2023-03-01T22:26:23;7.96;53.29
61351;DHT22;47119;49.130;9.218;2023-03-01T22:28:58;8.12;53.03
61351;DHT22;47119;49.130;9.218;2023-03-01T22:31:26;8.12;53.04
61351;DHT22;47119;49.130;9.218;2023-03-01T22:33:55;8.12;53.17
61351;DHT22;47119;49.130;9.218;2023-03-01T22:36:23;8.14;53.10
61351;DHT22;47119;49.130;9.218;2023-03-01T22:38:53;8.14;52.87
61351;DHT22;47119;49.130;9.218;2023-03-01T22:41:25;8.19;53.05
61351;DHT22;47119;49.130;9.218;2023-03-01T22:43:53;8.19;53.50
61351;DHT22;47119;49.130;9.218;2023-03-01T22:46:22;8.22;53.11
61351;DHT22;47119;49.130;9.218;2023-03-01T22:48:51;8.16;53.27
61351;DHT22;47119;49.130;9.218;2023-03-01T22:51:23;8.20;53.10
61351;DHT22;47119;49.130;9.218;2023-03-01T22:53:52;8.17;53.20
61351;DHT22;47119;49.130;9.218;2023-03-01T22:56:21;8.13;53.22
61351;DHT22;47119;49.130;9.218;2023-03-01T22:58:51;8.03;53.46
61351;DHT22;47119;49.130;9.218;2023-03-01T23:01:24;8.16;53.40
61351;DHT22;47119;49.130;9.218;2023-03-01T23:03:52;8.19;53.36
61351;DHT22;47119;49.130;9.218;2023-03-01T23:06:20;8.20;53.34
61351;DHT22;47119;49.130;9.218;2023-03-01T23:08:52;8.10;53.51
61351;DHT22;47119;49.130;9.218;2023-03-01T23:11:22;8.09;53.39
61351;DHT22;47119;49.130;9.218;2023-03-01T23:13:51;8.09;53.44
61351;DHT22;47119;49.130;9.218;2023-03-01T23:16:19;8.09;53.30
61351;DHT22;47119;49.130;9.218;2023-03-01T23:18:52;8.13;53.37
61351;DHT22;47119;49.130;9.218;2023-03-01T23:21:22;8.03;53.56
61351;DHT22;47119;49.130;9.218;2023-03-01T23:23:49;8.05;53.71
61351;DHT22;47119;49.130;9.218;2023-03-01T23:26:17;8.03;53.74
61351;DHT22;47119;49.130;9.218;2023-03-01T23:28:47;8.05;53.83
61351;DHT22;47119;49.130;9.218;2023-03-01T23:31:17;8.09;53.59
61351;DHT22;47119;49.130;9.218;2023-03-01T23:33:45;7.92;53.94
61351;DHT22;47119;49.130;9.218;2023-03-01T23:36:18;7.89;54.06
61351;DHT22;47119;49.130;9.218;2023-03-01T23:38:48;7.95;53.80
61351;DHT22;47119;49.130;9.218;2023-03-01T23:41:21;7.88;53.69
61351;DHT22;47119;49.130;9.218;2023-03-01T23:43:53;7.99;53.61
61351;DHT22;47119;49.130;9.218;2023-03-01T23:46:24;8.00;53.56
61351;DHT22;47119;49.130;9.218;2023-03-01T23:48:53;7.99;53.42
61351;DHT22;47119;49.130;9.218;2023-03-01T23:51:23;7.96;53.62
61351;DHT22;47119;49.130;9.218;2023-03-01T23:53:53;7.97;53.48
61351;DHT22;47119;49.130;9.218;2023-03-01T23:56:25;8.00;53.51
61351;DHT22;47119;49.130;9.218;2023-03-01T23:58:57;7.95;53.55
